createdAt,value
2017-07-26T00:00:21.143Z,16.44
2017-07-26T00:01:26.024Z,16.32
2017-07-26T00:02:30.952Z,16.27
2017-07-26T00:03:35.852Z,16.38
2017-07-26T00:04:40.757Z,16.40
2017-07-26T00:05:45.654Z,16.46
2017-07-26T00:06:50.543Z,16.31
2017-07-26T00:07:55.559Z,16.27
2017-07-26T00:09:00.537Z,16.23
2017-07-26T00:10:09.750Z,16.32
2017-07-26T00:11:14.782Z,16.42
2017-07-26T00:12:20.541Z,16.46
2017-07-26T00:13:25.502Z,16.39
2017-07-26T00:14:30.398Z,16.31
2017-07-26T00:15:35.281Z,16.42
2017-07-26T00:16:44.242Z,16.40
2017-07-26T00:17:49.114Z,16.33
2017-07-26T00:18:54.059Z,16.42
2017-07-26T00:19:59.719Z,16.30
2017-07-26T00:21:08.991Z,16.34
2017-07-26T00:22:13.900Z,16.35
2017-07-26T00:23:21.384Z,16.35
2017-07-26T00:24:26.319Z,16.31
2017-07-26T00:25:31.199Z,16.40
2017-07-26T00:26:36.143Z,16.36
2017-07-26T00:27:41.046Z,16.23
2017-07-26T00:28:45.946Z,16.17
2017-07-26T00:29:50.888Z,16.29
2017-07-26T00:30:55.774Z,16.22
2017-07-26T00:32:00.759Z,16.21
2017-07-26T00:33:05.636Z,16.30
2017-07-26T00:34:10.522Z,16.31
2017-07-26T00:35:15.430Z,16.33
2017-07-26T00:36:20.327Z,16.41
2017-07-26T00:37:25.199Z,16.40
2017-07-26T00:38:30.072Z,16.45
2017-07-26T00:39:34.958Z,16.41
2017-07-26T00:40:39.912Z,16.30
2017-07-26T00:41:45.646Z,16.26
2017-07-26T00:42:50.569Z,16.37
2017-07-26T00:43:55.457Z,16.32
2017-07-26T00:45:00.391Z,16.30
2017-07-26T00:46:05.308Z,16.28
2017-07-26T00:47:10.189Z,16.39
2017-07-26T00:48:15.083Z,16.44
2017-07-26T00:49:19.957Z,16.49
2017-07-26T00:50:24.830Z,16.48
2017-07-26T00:51:29.749Z,16.44
2017-07-26T00:52:34.637Z,16.33
2017-07-26T00:53:39.629Z,16.40
2017-07-26T00:54:44.520Z,16.34
2017-07-26T00:55:49.424Z,16.29
2017-07-26T00:56:54.342Z,16.39
2017-07-26T00:57:59.257Z,16.49
2017-07-26T00:59:04.164Z,16.35
2017-07-26T01:00:09.056Z,16.35
2017-07-26T01:01:13.951Z,16.40
2017-07-26T01:02:18.890Z,16.43
2017-07-26T01:03:23.771Z,16.35
2017-07-26T01:04:28.648Z,16.38
2017-07-26T01:05:33.565Z,16.44
2017-07-26T01:06:38.470Z,16.27
2017-07-26T01:07:43.385Z,16.21
2017-07-26T01:08:48.278Z,16.18
2017-07-26T01:09:53.233Z,16.22
2017-07-26T01:10:58.745Z,16.19
2017-07-26T01:12:03.251Z,16.14
2017-07-26T01:13:08.185Z,16.22
2017-07-26T01:14:13.086Z,16.22
2017-07-26T01:15:18.045Z,16.14
2017-07-26T01:16:22.942Z,16.13
2017-07-26T01:17:28.405Z,16.11
2017-07-26T01:18:33.333Z,16.07
2017-07-26T01:19:38.210Z,16.10
2017-07-26T01:20:42.705Z,16.16
2017-07-26T01:21:47.614Z,16.21
2017-07-26T01:22:52.506Z,16.30
2017-07-26T01:23:57.427Z,16.28
2017-07-26T01:25:02.302Z,16.29
2017-07-26T01:26:07.180Z,16.31
2017-07-26T01:27:12.114Z,16.29
2017-07-26T01:28:17.019Z,16.36
2017-07-26T01:29:21.961Z,16.30
2017-07-26T01:30:27.158Z,16.19
2017-07-26T01:31:32.034Z,16.17
2017-07-26T01:32:36.916Z,16.17
2017-07-26T01:33:41.805Z,16.12
2017-07-26T01:34:46.734Z,16.16
2017-07-26T01:35:51.645Z,16.18
2017-07-26T01:36:56.545Z,16.17
2017-07-26T01:38:01.402Z,16.19
2017-07-26T01:39:06.278Z,16.24
2017-07-26T01:40:10.875Z,16.09
2017-07-26T01:41:15.762Z,16.08
2017-07-26T01:42:20.687Z,16.14
2017-07-26T01:43:25.594Z,16.27
2017-07-26T01:44:30.473Z,16.33
2017-07-26T01:45:35.149Z,16.27
2017-07-26T01:46:39.695Z,16.23
2017-07-26T01:47:44.614Z,16.39
2017-07-26T01:48:49.943Z,16.38
2017-07-26T01:49:54.845Z,16.31
2017-07-26T01:50:59.777Z,16.30
2017-07-26T01:52:04.658Z,16.24
2017-07-26T01:53:09.522Z,16.28
2017-07-26T01:54:14.414Z,16.29
2017-07-26T01:55:24.038Z,16.30
2017-07-26T01:56:28.585Z,16.24
2017-07-26T01:57:33.498Z,16.23
2017-07-26T01:58:37.669Z,16.25
2017-07-26T01:59:42.550Z,16.17
2017-07-26T02:00:47.444Z,16.12
2017-07-26T02:01:52.385Z,16.17
2017-07-26T02:02:57.249Z,16.23
2017-07-26T02:04:02.122Z,16.22
2017-07-26T02:05:07.006Z,16.27
2017-07-26T02:06:11.871Z,16.31
2017-07-26T02:07:16.802Z,16.20
2017-07-26T02:08:23.604Z,16.25
2017-07-26T02:09:28.919Z,16.25
2017-07-26T02:10:33.826Z,16.23
2017-07-26T02:11:38.725Z,16.21
2017-07-26T02:12:44.040Z,16.12
2017-07-26T02:13:49.013Z,16.05
2017-07-26T02:14:53.945Z,16.02
2017-07-26T02:15:58.831Z,16.05
2017-07-26T02:17:03.709Z,16.14
2017-07-26T02:18:08.663Z,16.10
2017-07-26T02:19:13.545Z,16.03
2017-07-26T02:20:18.515Z,16.16
2017-07-26T02:21:23.410Z,16.20
2017-07-26T02:22:28.278Z,16.28
2017-07-26T02:23:33.229Z,16.17
2017-07-26T02:24:38.092Z,16.09
2017-07-26T02:25:42.975Z,16.03
2017-07-26T02:26:47.846Z,15.96
2017-07-26T02:27:52.730Z,15.95
2017-07-26T02:28:57.642Z,15.98
2017-07-26T02:30:02.546Z,16.02
2017-07-26T02:31:07.415Z,15.96
2017-07-26T02:32:12.334Z,16.03
2017-07-26T02:33:17.255Z,15.95
2017-07-26T02:34:22.263Z,15.91
2017-07-26T02:35:27.139Z,16.01
2017-07-26T02:36:32.020Z,16.06
2017-07-26T02:37:37.621Z,16.04
2017-07-26T02:38:42.523Z,16.10
2017-07-26T02:39:47.472Z,16.06
2017-07-26T02:40:52.345Z,15.98
2017-07-26T02:41:57.280Z,16.00
2017-07-26T02:43:03.380Z,16.05
2017-07-26T02:44:08.258Z,15.95
2017-07-26T02:45:13.186Z,16.02
2017-07-26T02:46:18.083Z,15.99
2017-07-26T02:47:22.998Z,15.96
2017-07-26T02:48:27.926Z,16.00
2017-07-26T02:49:32.445Z,16.00
2017-07-26T02:50:37.387Z,15.98
2017-07-26T02:51:42.300Z,15.96
2017-07-26T02:52:47.194Z,15.91
2017-07-26T02:53:52.126Z,15.94
2017-07-26T02:55:04.087Z,16.00
2017-07-26T02:56:11.807Z,16.03
2017-07-26T02:57:17.552Z,15.88
2017-07-26T02:58:22.418Z,15.89
2017-07-26T02:59:27.301Z,15.87
2017-07-26T03:00:32.203Z,15.87
2017-07-26T03:01:37.163Z,15.95
2017-07-26T03:02:42.034Z,15.86
2017-07-26T03:03:46.912Z,15.87
2017-07-26T03:04:51.810Z,15.71
2017-07-26T03:05:56.696Z,15.73
2017-07-26T03:07:01.601Z,15.75
2017-07-26T03:08:06.486Z,15.91
2017-07-26T03:09:11.378Z,15.95
2017-07-26T03:10:16.259Z,15.84
2017-07-26T03:11:21.133Z,15.83
2017-07-26T03:12:29.007Z,15.89
2017-07-26T03:13:33.909Z,15.87
2017-07-26T03:14:38.793Z,15.81
2017-07-26T03:15:43.680Z,15.85
2017-07-26T03:16:49.881Z,15.91
2017-07-26T03:17:54.806Z,15.96
2017-07-26T03:18:59.710Z,15.99
2017-07-26T03:20:04.615Z,15.97
2017-07-26T03:21:09.543Z,15.96
2017-07-26T03:22:14.424Z,15.89
2017-07-26T03:23:19.458Z,15.94
2017-07-26T03:24:24.498Z,15.95
2017-07-26T03:25:31.337Z,15.94
2017-07-26T03:26:37.152Z,15.84
2017-07-26T03:27:42.319Z,15.82
2017-07-26T03:28:47.314Z,15.87
2017-07-26T03:29:52.232Z,15.86
2017-07-26T03:30:57.144Z,15.81
2017-07-26T03:32:02.024Z,15.78
2017-07-26T03:33:07.482Z,15.90
2017-07-26T03:34:12.605Z,15.81
2017-07-26T03:35:17.505Z,15.82
2017-07-26T03:36:22.423Z,15.78
2017-07-26T03:37:27.350Z,15.81
2017-07-26T03:38:32.242Z,15.93
2017-07-26T03:39:37.282Z,15.90
2017-07-26T03:40:42.488Z,15.89
2017-07-26T03:41:47.393Z,15.81
2017-07-26T03:42:52.337Z,15.79
2017-07-26T03:43:57.230Z,15.80
2017-07-26T03:45:02.162Z,15.93
2017-07-26T03:46:07.037Z,15.96
2017-07-26T03:47:16.368Z,15.89
2017-07-26T03:48:21.259Z,15.81
2017-07-26T03:49:26.174Z,15.79
2017-07-26T03:50:31.121Z,15.89
2017-07-26T03:51:36.019Z,15.95
2017-07-26T03:52:40.946Z,15.98
2017-07-26T03:53:45.873Z,16.01
2017-07-26T03:54:50.938Z,15.96
2017-07-26T03:55:55.887Z,15.99
2017-07-26T03:57:00.789Z,15.96
2017-07-26T03:58:05.713Z,15.91
2017-07-26T03:59:10.581Z,15.88
2017-07-26T04:00:15.535Z,15.90
2017-07-26T04:01:21.031Z,15.91
2017-07-26T04:02:28.478Z,15.87
2017-07-26T04:03:36.370Z,15.86
2017-07-26T04:04:44.952Z,15.80
2017-07-26T04:05:52.170Z,15.77
2017-07-26T04:07:00.532Z,15.84
2017-07-26T04:08:08.285Z,15.88
2017-07-26T04:09:18.333Z,15.85
2017-07-26T04:10:27.004Z,15.85
2017-07-26T04:11:36.144Z,15.82
2017-07-26T04:12:43.758Z,15.82
2017-07-26T04:13:52.720Z,15.83
2017-07-26T04:14:59.755Z,15.81
2017-07-26T04:16:07.087Z,15.75
2017-07-26T04:17:14.854Z,15.79
2017-07-26T04:18:23.568Z,15.76
2017-07-26T04:19:31.697Z,15.73
2017-07-26T04:20:41.113Z,15.83
2017-07-26T04:21:48.418Z,15.88
2017-07-26T04:22:56.739Z,15.85
2017-07-26T04:24:04.424Z,15.83
2017-07-26T04:25:13.891Z,15.83
2017-07-26T04:26:21.062Z,15.84
2017-07-26T04:27:28.456Z,15.85
2017-07-26T04:28:35.926Z,15.86
2017-07-26T04:29:43.590Z,15.87
2017-07-26T04:30:51.057Z,15.93
2017-07-26T04:31:58.549Z,16.02
2017-07-26T04:33:06.167Z,15.97
2017-07-26T04:34:14.295Z,15.95
2017-07-26T04:35:21.964Z,15.84
2017-07-26T04:36:30.396Z,15.87
2017-07-26T04:37:38.753Z,15.84
2017-07-26T04:38:44.977Z,15.81
2017-07-26T04:39:49.847Z,15.80
2017-07-26T04:40:54.758Z,15.83
2017-07-26T04:41:59.652Z,15.89
2017-07-26T04:43:05.009Z,15.93
2017-07-26T04:44:10.547Z,15.92
2017-07-26T04:45:15.430Z,15.96
2017-07-26T04:46:20.355Z,16.11
2017-07-26T04:47:25.252Z,15.99
2017-07-26T04:48:30.275Z,16.06
2017-07-26T04:49:35.939Z,16.21
2017-07-26T04:50:46.795Z,16.08
2017-07-26T04:51:51.701Z,16.19
2017-07-26T04:52:56.607Z,15.99
2017-07-26T04:54:01.873Z,16.03
2017-07-26T04:55:07.251Z,16.18
2017-07-26T04:56:13.857Z,16.13
2017-07-26T04:57:20.427Z,15.99
2017-07-26T04:58:27.307Z,15.94
2017-07-26T04:59:32.971Z,16.01
2017-07-26T05:00:39.578Z,16.12
2017-07-26T05:01:44.474Z,16.05
2017-07-26T05:02:49.361Z,16.02
2017-07-26T05:03:54.750Z,15.95
2017-07-26T05:05:00.070Z,15.91
2017-07-26T05:06:04.998Z,16.00
2017-07-26T05:07:09.923Z,16.10
2017-07-26T05:08:14.842Z,16.09
2017-07-26T05:09:19.725Z,16.16
2017-07-26T05:10:25.531Z,16.23
2017-07-26T05:11:31.517Z,16.29
2017-07-26T05:12:36.407Z,16.29
2017-07-26T05:13:42.829Z,16.22
2017-07-26T05:14:48.292Z,16.32
2017-07-26T05:15:53.218Z,16.26
2017-07-26T05:16:58.191Z,16.18
2017-07-26T05:18:03.105Z,16.17
2017-07-26T05:19:07.990Z,16.21
2017-07-26T05:20:12.898Z,16.29
2017-07-26T05:21:21.150Z,16.16
2017-07-26T05:22:26.060Z,16.18
2017-07-26T05:23:30.966Z,16.22
2017-07-26T05:24:35.884Z,16.10
2017-07-26T05:25:40.801Z,16.11
2017-07-26T05:26:45.705Z,16.04
2017-07-26T05:27:50.637Z,16.06
2017-07-26T05:28:55.544Z,16.10
2017-07-26T05:30:00.422Z,16.14
2017-07-26T05:31:05.313Z,16.15
2017-07-26T05:32:10.227Z,16.08
2017-07-26T05:33:17.165Z,16.07
2017-07-26T05:34:23.020Z,16.14
2017-07-26T05:35:27.903Z,16.20
2017-07-26T05:36:32.832Z,16.14
2017-07-26T05:37:37.722Z,16.04
2017-07-26T05:38:42.693Z,16.19
2017-07-26T05:39:47.610Z,16.13
2017-07-26T05:40:52.500Z,16.22
2017-07-26T05:41:57.398Z,16.07
2017-07-26T05:43:04.090Z,15.96
2017-07-26T05:44:09.041Z,15.98
2017-07-26T05:45:13.929Z,16.02
2017-07-26T05:46:18.885Z,16.02
2017-07-26T05:47:28.530Z,16.05
2017-07-26T05:48:46.837Z,16.04
2017-07-26T05:49:55.348Z,16.06
2017-07-26T05:51:00.242Z,16.00
2017-07-26T05:52:05.139Z,15.98
2017-07-26T05:53:10.044Z,16.13
2017-07-26T05:54:15.577Z,16.18
2017-07-26T05:55:20.491Z,16.21
2017-07-26T05:56:25.671Z,16.32
2017-07-26T05:57:30.585Z,16.27
2017-07-26T05:58:35.509Z,16.28
2017-07-26T05:59:40.391Z,16.28
2017-07-26T06:00:45.348Z,16.32
2017-07-26T06:01:50.238Z,16.21
2017-07-26T06:03:02.097Z,16.09
2017-07-26T06:04:08.557Z,16.03
2017-07-26T06:05:16.141Z,16.06
2017-07-26T06:06:21.807Z,16.05
2017-07-26T06:07:26.950Z,15.97
2017-07-26T06:08:32.430Z,16.13
2017-07-26T06:09:37.347Z,16.15
2017-07-26T06:10:42.228Z,16.20
2017-07-26T06:11:47.148Z,16.19
2017-07-26T06:12:52.069Z,16.16
2017-07-26T06:13:57.180Z,16.17
2017-07-26T06:15:01.866Z,16.26
2017-07-26T06:16:06.791Z,16.24
2017-07-26T06:17:11.811Z,16.26
2017-07-26T06:18:16.724Z,16.25
2017-07-26T06:19:21.634Z,16.29
2017-07-26T06:20:26.549Z,16.29
2017-07-26T06:21:31.439Z,16.33
2017-07-26T06:22:36.373Z,16.40
2017-07-26T06:23:46.021Z,16.44
2017-07-26T06:24:50.914Z,16.43
2017-07-26T06:25:55.823Z,16.40
2017-07-26T06:27:00.713Z,16.43
2017-07-26T06:28:05.678Z,16.55
2017-07-26T06:29:10.586Z,16.65
2017-07-26T06:30:16.444Z,16.46
2017-07-26T06:31:21.354Z,16.42
2017-07-26T06:32:26.235Z,16.42
2017-07-26T06:33:31.172Z,16.40
2017-07-26T06:34:36.807Z,16.45
2017-07-26T06:35:41.716Z,16.43
2017-07-26T06:36:46.629Z,16.40
2017-07-26T06:37:51.555Z,16.43
2017-07-26T06:38:56.610Z,16.42
2017-07-26T06:40:01.544Z,16.40
2017-07-26T06:41:06.476Z,16.46
2017-07-26T06:42:11.855Z,16.35
2017-07-26T06:43:16.762Z,16.38
2017-07-26T06:44:21.686Z,16.33
2017-07-26T06:45:26.592Z,16.43
2017-07-26T06:46:31.542Z,16.40
2017-07-26T06:47:36.468Z,16.46
2017-07-26T06:48:41.466Z,16.41
2017-07-26T06:49:46.412Z,16.52
2017-07-26T06:50:51.285Z,16.63
2017-07-26T06:51:56.207Z,16.52
2017-07-26T06:53:01.125Z,16.51
2017-07-26T06:54:06.130Z,16.44
2017-07-26T06:55:11.074Z,16.43
2017-07-26T06:56:16.153Z,16.49
2017-07-26T06:57:21.050Z,16.46
2017-07-26T06:58:25.930Z,16.40
2017-07-26T06:59:30.809Z,16.45
2017-07-26T07:00:35.735Z,16.49
2017-07-26T07:01:40.670Z,16.47
2017-07-26T07:02:45.574Z,16.35
2017-07-26T07:03:50.477Z,16.33
2017-07-26T07:05:01.214Z,16.30
2017-07-26T07:06:07.516Z,16.24
2017-07-26T07:07:12.427Z,16.31
2017-07-26T07:08:17.322Z,16.16
2017-07-26T07:09:22.221Z,16.26
2017-07-26T07:10:27.097Z,16.31
2017-07-26T07:11:32.046Z,16.25
2017-07-26T07:12:36.583Z,16.21
2017-07-26T07:13:41.518Z,16.24
2017-07-26T07:14:46.393Z,16.26
2017-07-26T07:15:51.289Z,16.31
2017-07-26T07:16:56.241Z,16.32
2017-07-26T07:18:01.136Z,16.36
2017-07-26T07:19:06.082Z,16.37
2017-07-26T07:20:10.984Z,16.32
2017-07-26T07:21:15.875Z,16.40
2017-07-26T07:22:20.837Z,16.41
2017-07-26T07:23:25.762Z,16.39
2017-07-26T07:24:30.667Z,16.38
2017-07-26T07:25:35.610Z,16.41
2017-07-26T07:26:40.509Z,16.43
2017-07-26T07:27:45.148Z,16.44
2017-07-26T07:28:50.042Z,16.41
2017-07-26T07:29:54.927Z,16.46
2017-07-26T07:30:59.844Z,16.55
2017-07-26T07:32:04.782Z,16.52
2017-07-26T07:33:09.694Z,16.39
2017-07-26T07:34:14.602Z,16.43
2017-07-26T07:35:19.506Z,16.38
2017-07-26T07:36:24.454Z,16.43
2017-07-26T07:37:29.342Z,16.47
2017-07-26T07:38:34.271Z,16.54
2017-07-26T07:39:39.241Z,16.48
2017-07-26T07:40:44.121Z,16.38
2017-07-26T07:41:48.989Z,16.42
2017-07-26T07:42:53.910Z,16.42
2017-07-26T07:43:58.854Z,16.36
2017-07-26T07:45:03.731Z,16.44
2017-07-26T07:46:08.623Z,16.36
2017-07-26T07:47:13.525Z,16.48
2017-07-26T07:48:18.490Z,16.55
2017-07-26T07:49:23.476Z,16.64
2017-07-26T07:50:33.398Z,16.71
2017-07-26T07:51:38.323Z,16.77
2017-07-26T07:52:43.258Z,16.75
2017-07-26T07:53:48.191Z,16.76
2017-07-26T07:54:56.127Z,16.84
2017-07-26T07:56:01.079Z,16.90
2017-07-26T07:57:06.842Z,16.79
2017-07-26T07:58:11.763Z,16.84
2017-07-26T07:59:16.677Z,16.83
2017-07-26T08:00:22.278Z,16.83
2017-07-26T08:01:27.201Z,16.75
2017-07-26T08:02:32.144Z,16.78
2017-07-26T08:03:37.060Z,16.75
2017-07-26T08:04:41.971Z,16.67
2017-07-26T08:05:46.924Z,16.64
2017-07-26T08:06:54.508Z,16.66
2017-07-26T08:07:59.445Z,16.62
2017-07-26T08:09:04.540Z,16.64
2017-07-26T08:10:09.471Z,16.65
2017-07-26T08:11:14.479Z,16.63
2017-07-26T08:12:19.397Z,16.69
2017-07-26T08:13:24.405Z,16.72
2017-07-26T08:14:29.326Z,16.72
2017-07-26T08:15:34.263Z,16.75
2017-07-26T08:16:39.205Z,16.79
2017-07-26T08:17:44.137Z,16.81
2017-07-26T08:18:49.073Z,16.76
2017-07-26T08:19:55.000Z,16.75
2017-07-26T08:21:00.818Z,16.84
2017-07-26T08:22:05.834Z,16.90
2017-07-26T08:23:10.759Z,17.02
2017-07-26T08:24:16.307Z,17.01
2017-07-26T08:25:21.214Z,16.96
2017-07-26T08:26:26.754Z,16.90
2017-07-26T08:27:31.707Z,16.89
2017-07-26T08:28:37.535Z,16.91
2017-07-26T08:29:42.453Z,16.96
2017-07-26T08:30:47.390Z,16.99
2017-07-26T08:31:52.311Z,17.03
2017-07-26T08:32:58.049Z,17.03
2017-07-26T08:34:02.974Z,17.06
2017-07-26T08:35:07.901Z,17.00
2017-07-26T08:36:12.815Z,17.04
2017-07-26T08:37:17.734Z,17.03
2017-07-26T08:38:23.422Z,17.13
2017-07-26T08:39:28.348Z,17.11
2017-07-26T08:40:33.977Z,17.01
2017-07-26T08:41:39.683Z,17.07
2017-07-26T08:42:44.628Z,17.10
2017-07-26T08:43:50.290Z,17.01
2017-07-26T08:44:55.213Z,17.02
2017-07-26T08:46:00.130Z,17.15
2017-07-26T08:47:05.086Z,17.08
2017-07-26T08:48:09.994Z,17.13
2017-07-26T08:49:19.387Z,17.09
2017-07-26T08:50:24.370Z,17.11
2017-07-26T08:51:28.911Z,17.13
2017-07-26T08:52:33.843Z,17.13
2017-07-26T08:53:39.574Z,17.08
2017-07-26T08:54:44.350Z,17.18
2017-07-26T08:55:49.271Z,17.17
2017-07-26T08:56:54.200Z,17.25
2017-07-26T08:57:59.132Z,17.26
2017-07-26T08:59:05.168Z,17.24
2017-07-26T09:00:10.153Z,17.24
2017-07-26T09:01:15.106Z,17.28
2017-07-26T09:02:20.039Z,17.26
2017-07-26T09:03:26.010Z,17.23
2017-07-26T09:04:31.762Z,17.19
2017-07-26T09:05:36.733Z,17.27
2017-07-26T09:06:41.709Z,17.20
2017-07-26T09:07:47.342Z,17.20
2017-07-26T09:08:52.279Z,17.04
2017-07-26T09:09:57.478Z,17.09
2017-07-26T09:11:02.591Z,17.11
2017-07-26T09:12:08.799Z,17.09
2017-07-26T09:13:13.781Z,17.06
2017-07-26T09:14:18.726Z,17.02
2017-07-26T09:15:23.640Z,16.96
2017-07-26T09:16:28.622Z,16.95
2017-07-26T09:17:33.546Z,16.95
2017-07-26T09:18:38.462Z,16.93
2017-07-26T09:19:43.374Z,17.04
2017-07-26T09:20:48.330Z,16.97
2017-07-26T09:21:53.299Z,17.01
2017-07-26T09:22:58.233Z,17.01
2017-07-26T09:24:03.166Z,17.06
2017-07-26T09:25:08.111Z,17.05
2017-07-26T09:26:13.060Z,17.08
2017-07-26T09:27:18.043Z,17.07
2017-07-26T09:28:22.975Z,17.07
2017-07-26T09:29:28.563Z,17.20
2017-07-26T09:30:33.478Z,17.21
2017-07-26T09:31:39.071Z,17.24
2017-07-26T09:32:44.042Z,17.27
2017-07-26T09:33:48.949Z,17.26
2017-07-26T09:34:53.861Z,17.28
2017-07-26T09:35:59.613Z,17.33
2017-07-26T09:37:04.542Z,17.26
2017-07-26T09:38:09.490Z,17.29
2017-07-26T09:39:14.466Z,17.17
2017-07-26T09:40:19.416Z,17.24
2017-07-26T09:41:24.450Z,17.30
2017-07-26T09:42:29.357Z,17.27
2017-07-26T09:43:34.303Z,17.29
2017-07-26T09:44:39.218Z,17.32
2017-07-26T09:45:44.126Z,17.30
2017-07-26T09:46:49.038Z,17.25
2017-07-26T09:47:53.958Z,17.28
2017-07-26T09:48:58.966Z,17.27
2017-07-26T09:50:03.882Z,17.13
2017-07-26T09:51:08.823Z,17.17
2017-07-26T09:52:17.141Z,17.17
2017-07-26T09:53:23.213Z,17.27
2017-07-26T09:54:28.168Z,17.15
2017-07-26T09:55:33.084Z,17.19
2017-07-26T09:56:38.024Z,17.19
2017-07-26T09:57:43.651Z,17.19
2017-07-26T09:58:48.556Z,17.25
2017-07-26T09:59:54.210Z,17.26
2017-07-26T10:00:59.120Z,17.25
2017-07-26T10:02:04.045Z,17.18
2017-07-26T10:03:08.991Z,17.13
2017-07-26T10:04:13.913Z,17.19
2017-07-26T10:05:18.861Z,17.19
2017-07-26T10:06:23.849Z,17.23
2017-07-26T10:07:28.778Z,17.32
2017-07-26T10:08:33.701Z,17.33
2017-07-26T10:09:38.610Z,17.34
2017-07-26T10:10:43.566Z,17.27
2017-07-26T10:11:49.130Z,17.30
2017-07-26T10:12:54.074Z,17.24
2017-07-26T10:13:58.990Z,17.16
2017-07-26T10:15:03.912Z,17.13
2017-07-26T10:16:10.060Z,17.19
2017-07-26T10:17:15.021Z,17.17
2017-07-26T10:18:19.969Z,17.15
2017-07-26T10:19:24.964Z,17.11
2017-07-26T10:20:29.877Z,17.18
2017-07-26T10:21:35.478Z,17.10
2017-07-26T10:22:40.400Z,17.09
2017-07-26T10:23:45.319Z,17.16
2017-07-26T10:24:50.244Z,17.12
2017-07-26T10:25:55.146Z,17.09
2017-07-26T10:27:02.129Z,17.15
2017-07-26T10:28:07.333Z,17.22
2017-07-26T10:29:12.267Z,17.15
2017-07-26T10:30:17.177Z,17.05
2017-07-26T10:31:22.740Z,17.07
2017-07-26T10:32:28.298Z,17.05
2017-07-26T10:33:33.478Z,17.08
2017-07-26T10:34:41.331Z,17.05
2017-07-26T10:35:46.259Z,17.03
2017-07-26T10:36:51.174Z,17.13
2017-07-26T10:37:56.130Z,17.18
2017-07-26T10:39:01.863Z,17.22
2017-07-26T10:40:06.845Z,17.15
2017-07-26T10:41:11.765Z,17.12
2017-07-26T10:42:16.705Z,17.13
2017-07-26T10:43:21.703Z,17.12
2017-07-26T10:44:26.639Z,17.09
2017-07-26T10:45:32.238Z,17.20
2017-07-26T10:46:37.167Z,17.22
2017-07-26T10:47:42.733Z,17.13
2017-07-26T10:48:48.240Z,17.22
2017-07-26T10:49:53.206Z,17.27
2017-07-26T10:50:58.143Z,17.20
2017-07-26T10:52:03.054Z,17.29
2017-07-26T10:53:07.974Z,17.28
2017-07-26T10:54:12.941Z,17.28
2017-07-26T10:55:21.192Z,17.29
2017-07-26T10:56:31.358Z,17.29
2017-07-26T10:57:36.274Z,17.27
2017-07-26T10:58:41.192Z,17.35
2017-07-26T10:59:46.252Z,17.29
2017-07-26T11:00:51.208Z,17.33
2017-07-26T11:01:56.134Z,17.35
2017-07-26T11:03:01.076Z,17.41
2017-07-26T11:04:06.021Z,17.36
2017-07-26T11:05:10.962Z,17.31
2017-07-26T11:06:17.079Z,17.28
2017-07-26T11:07:22.229Z,17.25
2017-07-26T11:08:27.237Z,17.29
2017-07-26T11:09:32.185Z,17.26
2017-07-26T11:10:37.149Z,17.27
2017-07-26T11:11:42.069Z,17.23
2017-07-26T11:12:47.002Z,17.29
2017-07-26T11:13:51.918Z,17.42
2017-07-26T11:14:56.841Z,17.38
2017-07-26T11:16:02.562Z,17.36
2017-07-26T11:17:08.118Z,17.38
2017-07-26T11:18:13.684Z,17.43
2017-07-26T11:19:18.618Z,17.28
2017-07-26T11:20:23.533Z,17.38
2017-07-26T11:21:28.554Z,17.43
2017-07-26T11:22:33.474Z,17.38
2017-07-26T11:23:38.403Z,17.36
2017-07-26T11:24:44.538Z,17.37
2017-07-26T11:25:49.478Z,17.40
2017-07-26T11:26:54.410Z,17.41
2017-07-26T11:27:59.329Z,17.35
2017-07-26T11:29:04.937Z,17.39
2017-07-26T11:30:09.861Z,17.40
2017-07-26T11:31:15.501Z,17.38
2017-07-26T11:32:20.443Z,17.46
2017-07-26T11:33:25.374Z,17.38
2017-07-26T11:34:30.338Z,17.36
2017-07-26T11:35:35.275Z,17.35
2017-07-26T11:36:40.201Z,17.29
2017-07-26T11:37:45.160Z,17.26
2017-07-26T11:38:50.086Z,17.24
2017-07-26T11:39:55.633Z,17.22
2017-07-26T11:41:00.563Z,17.29
2017-07-26T11:42:06.150Z,17.30
2017-07-26T11:43:11.089Z,17.33
2017-07-26T11:44:16.079Z,17.28
2017-07-26T11:45:21.639Z,17.25
2017-07-26T11:46:26.568Z,17.37
2017-07-26T11:47:32.242Z,17.35
2017-07-26T11:48:38.050Z,17.26
2017-07-26T11:49:42.986Z,17.25
2017-07-26T11:50:47.954Z,17.32
2017-07-26T11:51:52.879Z,17.35
2017-07-26T11:52:58.459Z,17.41
2017-07-26T11:54:04.033Z,17.37
2017-07-26T11:55:12.280Z,17.38
2017-07-26T11:56:17.231Z,17.36
2017-07-26T11:57:22.980Z,17.45
2017-07-26T11:58:27.974Z,17.36
2017-07-26T11:59:32.901Z,17.45
2017-07-26T12:00:37.849Z,17.47
2017-07-26T12:01:42.762Z,17.51
2017-07-26T12:02:47.671Z,17.47
2017-07-26T12:03:52.600Z,17.46
2017-07-26T12:04:57.228Z,17.39
2017-07-26T12:06:02.159Z,17.38
2017-07-26T12:07:07.083Z,17.46
2017-07-26T12:08:11.983Z,17.43
2017-07-26T12:09:17.475Z,17.39
2017-07-26T12:10:23.189Z,17.40
2017-07-26T12:11:28.185Z,17.43
2017-07-26T12:12:33.865Z,17.54
2017-07-26T12:13:38.802Z,17.58
2017-07-26T12:14:43.726Z,17.61
2017-07-26T12:15:48.669Z,17.63
2017-07-26T12:16:53.642Z,17.66
2017-07-26T12:17:58.565Z,17.73
2017-07-26T12:19:10.983Z,17.82
2017-07-26T12:20:16.989Z,17.86
2017-07-26T12:21:21.917Z,17.81
2017-07-26T12:22:26.862Z,17.91
2017-07-26T12:23:31.845Z,17.92
2017-07-26T12:24:36.777Z,17.95
2017-07-26T12:25:41.698Z,17.98
2017-07-26T12:26:47.412Z,17.97
2017-07-26T12:27:52.379Z,17.92
2017-07-26T12:28:57.415Z,17.96
2017-07-26T12:30:02.432Z,18.03
2017-07-26T12:31:07.354Z,18.06
2017-07-26T12:32:12.318Z,17.96
2017-07-26T12:33:17.240Z,18.07
2017-07-26T12:34:22.210Z,18.03
2017-07-26T12:35:27.960Z,18.09
2017-07-26T12:36:32.887Z,18.14
2017-07-26T12:37:39.988Z,18.18
2017-07-26T12:38:45.578Z,18.21
2017-07-26T12:39:50.885Z,18.22
2017-07-26T12:40:57.034Z,18.28
2017-07-26T12:42:02.764Z,18.24
2017-07-26T12:43:08.558Z,18.32
2017-07-26T12:44:13.486Z,18.26
2017-07-26T12:45:18.410Z,18.33
2017-07-26T12:46:23.354Z,18.38
2017-07-26T12:47:28.358Z,18.34
2017-07-26T12:48:33.368Z,18.42
2017-07-26T12:49:38.298Z,18.46
2017-07-26T12:50:43.267Z,18.46
2017-07-26T12:51:48.197Z,18.48
2017-07-26T12:52:53.171Z,18.55
2017-07-26T12:53:58.163Z,18.54
2017-07-26T12:55:08.036Z,18.56
2017-07-26T12:56:12.975Z,18.52
2017-07-26T12:57:17.914Z,18.48
2017-07-26T12:58:22.842Z,18.38
2017-07-26T12:59:27.865Z,18.38
2017-07-26T13:00:32.811Z,18.36
2017-07-26T13:01:37.834Z,18.43
2017-07-26T13:02:42.823Z,18.47
2017-07-26T13:03:47.772Z,18.37
2017-07-26T13:04:52.718Z,18.44
2017-07-26T13:05:57.647Z,18.43
2017-07-26T13:07:02.569Z,18.40
2017-07-26T13:08:07.496Z,18.34
2017-07-26T13:09:12.425Z,18.36
2017-07-26T13:10:21.988Z,18.38
2017-07-26T13:11:26.542Z,18.37
2017-07-26T13:12:32.609Z,18.38
2017-07-26T13:13:37.637Z,18.43
2017-07-26T13:14:42.572Z,18.52
2017-07-26T13:15:47.540Z,18.46
2017-07-26T13:16:53.231Z,18.41
2017-07-26T13:17:59.362Z,18.40
2017-07-26T13:19:04.919Z,18.41
2017-07-26T13:20:09.858Z,18.35
2017-07-26T13:21:18.090Z,18.33
2017-07-26T13:22:23.393Z,18.35
2017-07-26T13:23:30.126Z,18.30
2017-07-26T13:24:36.153Z,18.30
2017-07-26T13:25:41.093Z,18.27
2017-07-26T13:26:46.070Z,18.33
2017-07-26T13:27:51.000Z,18.29
2017-07-26T13:28:57.405Z,18.37
2017-07-26T13:30:02.370Z,18.44
2017-07-26T13:31:07.321Z,18.37
2017-07-26T13:32:12.277Z,18.38
2017-07-26T13:33:17.230Z,18.38
2017-07-26T13:34:23.317Z,18.34
2017-07-26T13:35:31.031Z,18.34
2017-07-26T13:36:38.810Z,18.33
2017-07-26T13:37:43.768Z,18.29
2017-07-26T13:38:50.494Z,18.28
2017-07-26T13:39:55.685Z,18.31
2017-07-26T13:41:00.626Z,18.30
2017-07-26T13:42:07.717Z,18.32
2017-07-26T13:43:14.774Z,18.32
2017-07-26T13:44:19.716Z,18.29
2017-07-26T13:45:25.954Z,18.37
2017-07-26T13:46:30.899Z,18.37
2017-07-26T13:47:35.842Z,18.42
2017-07-26T13:48:41.761Z,18.45
2017-07-26T13:49:46.691Z,18.41
2017-07-26T13:50:51.671Z,18.41
2017-07-26T13:51:56.618Z,18.45
2017-07-26T13:53:01.583Z,18.44
2017-07-26T13:54:07.305Z,18.50
2017-07-26T13:55:12.300Z,18.51
2017-07-26T13:56:17.222Z,18.50
2017-07-26T13:57:22.178Z,18.49
2017-07-26T13:58:27.958Z,18.56
2017-07-26T13:59:32.934Z,18.52
2017-07-26T14:00:37.920Z,18.57
2017-07-26T14:01:44.045Z,18.50